Time;durP1;ratioP1;P1;durP2;ratioP2;P2;SDS_P1;SDS_P2;PMS_P1;PMS_P2;Temp;Humidity;BMP_temperature;BMP_pressure;BME280_temperature;BME280_humidity;BME280_pressure;Samples;Min_cycle;Max_cycle;Signal;HPM_P1;HPM_P2
2022/07/15 00:00:32;;;;;;;17.73;14.80;;;17.50;99.90;;;;;;4991924;28;20037;-58
2022/07/15 00:02:58;;;;;;;19.60;15.02;;;17.50;99.90;;;;;;5009858;28;20038;-57
2022/07/15 00:05:25;;;;;;;20.75;15.90;;;17.60;99.90;;;;;;5012772;28;20037;-57
2022/07/15 00:07:52;;;;;;;19.15;16.33;;;17.40;99.90;;;;;;5013578;28;20088;-60
2022/07/15 00:10:23;;;;;;;22.95;18.20;;;17.40;99.90;;;;;;5013718;28;20029;-57
2022/07/15 00:12:59;;;;;;;25.08;18.83;;;17.40;99.90;;;;;;5013460;28;20084;-57
2022/07/15 00:15:28;;;;;;;23.65;20.13;;;17.40;99.90;;;;;;5013757;28;20030;-56
2022/07/15 00:17:55;;;;;;;24.33;20.27;;;17.40;99.90;;;;;;5013545;28;20029;-57
2022/07/15 00:20:22;;;;;;;24.30;20.15;;;17.40;99.90;;;;;;5013543;28;20030;-57
2022/07/15 00:22:48;;;;;;;27.70;19.92;;;17.40;99.90;;;;;;5013523;28;20080;-57
2022/07/15 00:25:15;;;;;;;23.67;18.85;;;17.40;99.90;;;;;;5013490;28;20041;-57
2022/07/15 00:27:52;;;;;;;26.05;20.50;;;17.40;99.90;;;;;;5013388;28;20100;-57
2022/07/15 00:30:18;;;;;;;24.25;18.23;;;17.40;99.90;;;;;;4995416;28;20520;-56
2022/07/15 00:32:44;;;;;;;21.00;16.30;;;17.30;99.90;;;;;;5013251;28;20100;-57
2022/07/15 00:35:09;;;;;;;21.73;17.73;;;17.30;99.90;;;;;;5013280;28;20054;-57
2022/07/15 00:37:35;;;;;;;19.55;16.88;;;17.30;99.90;;;;;;5013161;28;20034;-57
2022/07/15 00:40:01;;;;;;;19.45;15.68;;;17.40;99.90;;;;;;5013047;28;20045;-57
2022/07/15 00:42:45;;;;;;;21.35;15.75;;;17.30;99.90;;;;;;5013372;28;20033;-56
2022/07/15 00:45:23;;;;;;;18.38;14.65;;;17.20;99.90;;;;;;5013103;28;20026;-57
2022/07/15 00:47:51;;;;;;;19.92;14.98;;;17.20;99.90;;;;;;5013032;28;20045;-57
2022/07/15 00:50:18;;;;;;;16.48;14.00;;;17.20;99.90;;;;;;5012870;28;20036;-57
2022/07/15 00:52:49;;;;;;;16.52;14.23;;;17.10;99.90;;;;;;4995313;28;20224;-57
2022/07/15 00:55:17;;;;;;;17.52;13.95;;;17.10;99.90;;;;;;5012978;28;20512;-57
2022/07/15 00:57:43;;;;;;;;;;;17.20;99.90;;;;;;5013580;28;20030;-57
2022/07/15 01:00:11;;;;;;;16.02;13.30;;;17.20;99.90;;;;;;5012549;28;20353;-57
2022/07/15 01:02:39;;;;;;;17.85;14.95;;;17.20;99.90;;;;;;5012604;28;20034;-57
2022/07/15 01:05:07;;;;;;;20.13;15.48;;;17.30;99.90;;;;;;5013009;28;20041;-57
2022/07/15 01:07:34;;;;;;;21.45;16.75;;;17.30;99.90;;;;;;5012889;28;20029;-56
2022/07/15 01:10:00;;;;;;;21.83;16.92;;;17.40;99.90;;;;;;5012523;28;20021;-56
2022/07/15 01:12:26;;;;;;;23.55;17.90;;;17.40;99.90;;;;;;5012564;28;20042;-56
2022/07/15 01:14:52;;;;;;;23.67;18.87;;;17.40;99.90;;;;;;4994618;28;20034;-57
2022/07/15 01:17:18;;;;;;;24.17;18.92;;;17.40;99.90;;;;;;5012465;28;20109;-57
2022/07/15 01:19:44;;;;;;;27.13;19.63;;;17.40;99.90;;;;;;5012548;28;20113;-57
2022/07/15 01:22:10;;;;;;;23.60;18.35;;;17.30;99.90;;;;;;5012655;28;20026;-57
2022/07/15 01:24:35;;;;;;;22.05;18.70;;;17.40;99.90;;;;;;5012598;28;20030;-57
2022/07/15 01:27:01;;;;;;;30.88;18.23;;;17.40;99.90;;;;;;5012335;28;20029;-57
2022/07/15 01:29:28;;;;;;;21.42;15.18;;;17.40;99.90;;;;;;5012350;28;20022;-57
2022/07/15 01:31:54;;;;;;;18.83;14.90;;;17.30;99.90;;;;;;5012063;28;20385;-56
2022/07/15 01:34:20;;;;;;;20.13;14.05;;;17.30;99.90;;;;;;4994531;28;20033;-57
2022/07/15 01:36:47;;;;;;;21.88;14.48;;;17.30;99.90;;;;;;5012243;28;20022;-57
2022/07/15 01:39:13;;;;;;;20.10;14.17;;;17.30;99.90;;;;;;5012163;28;20469;-57
2022/07/15 01:41:38;;;;;;;17.30;14.02;;;17.30;99.90;;;;;;5011869;28;20759;-57
2022/07/15 01:44:04;;;;;;;17.50;13.85;;;17.30;99.90;;;;;;5012032;28;20033;-57
2022/07/15 01:46:30;;;;;;;16.65;13.52;;;17.30;99.90;;;;;;5011854;28;20646;-57
2022/07/15 01:51:41;;;;;;;22.88;13.27;;;17.30;99.90;;;;;;5012086;28;20036;-57
2022/07/15 01:54:06;;;;;;;18.73;12.82;;;17.10;99.90;;;;;;5012131;28;20034;-57
2022/07/15 01:56:32;;;;;;;14.77;11.55;;;17.20;99.90;;;;;;5011706;28;20528;-57
2022/07/15 01:58:58;;;;;;;33.10;12.57;;;17.10;99.90;;;;;;5011722;28;20061;-57
2022/07/15 02:01:24;;;;;;;17.42;12.25;;;17.10;99.90;;;;;;5011743;28;20025;-57
2022/07/15 02:03:50;;;;;;;20.40;13.07;;;17.10;99.90;;;;;;5011485;28;20421;-57
2022/07/15 02:06:16;;;;;;;22.13;12.18;;;17.00;99.90;;;;;;5011507;28;20586;-57
2022/07/15 02:08:42;;;;;;;20.43;12.37;;;17.00;99.90;;;;;;4994145;28;20022;-57
2022/07/15 02:11:08;;;;;;;20.92;12.55;;;17.00;99.90;;;;;;5011580;28;20393;-57
2022/07/15 02:13:33;;;;;;;22.17;12.85;;;17.00;99.90;;;;;;5011534;28;20121;-57
2022/07/15 02:15:59;;;;;;;25.42;14.55;;;17.00;99.90;;;;;;5011708;28;20033;-56
2022/07/15 02:18:25;;;;;;;26.33;14.75;;;17.00;99.90;;;;;;5011432;28;20449;-57
2022/07/15 02:20:50;;;;;;;22.88;13.93;;;17.00;99.90;;;;;;5011757;28;20030;-57
2022/07/15 02:23:16;;;;;;;23.30;13.80;;;16.90;99.90;;;;;;5011164;28;20504;-57
2022/07/15 02:25:42;;;;;;;19.38;13.43;;;16.90;99.90;;;;;;5011337;28;20457;-57
2022/07/15 02:28:08;;;;;;;23.40;13.57;;;16.90;99.90;;;;;;4991029;28;20488;-57
2022/07/15 02:30:37;;;;;;;22.67;13.00;;;16.80;99.90;;;;;;4992652;28;20044;-56
2022/07/15 02:33:04;;;;;;;18.92;12.77;;;16.80;99.90;;;;;;5011071;28;20041;-57
2022/07/15 02:35:31;;;;;;;19.92;12.73;;;16.70;99.90;;;;;;5011257;28;20022;-57
2022/07/15 02:37:57;;;;;;;22.52;12.68;;;16.60;99.90;;;;;;4993128;28;20029;-57
2022/07/15 02:40:23;;;;;;;19.83;13.45;;;16.50;99.90;;;;;;5010986;28;20064;-57
2022/07/15 02:42:54;;;;;;;28.42;14.48;;;16.40;99.90;;;;;;5010727;28;20064;-57
2022/07/15 02:45:22;;;;;;;22.13;15.02;;;16.30;99.90;;;;;;5011117;28;20022;-57
2022/07/15 02:47:49;;;;;;;26.77;14.25;;;16.20;99.90;;;;;;5010762;28;20489;-57
2022/07/15 02:50:15;;;;;;;19.33;13.98;;;16.20;99.90;;;;;;5010807;28;20690;-57
2022/07/15 02:52:42;;;;;;;22.17;14.03;;;16.10;99.90;;;;;;5010841;28;20117;-57
2022/07/15 02:55:09;;;;;;;22.20;14.82;;;16.10;99.90;;;;;;5010566;28;20034;-57
2022/07/15 02:57:36;;;;;;;20.88;12.93;;;16.00;99.90;;;;;;5010626;28;20505;-57
2022/07/15 03:00:03;;;;;;;17.55;13.90;;;16.00;99.90;;;;;;5010338;28;20076;-58
2022/07/15 03:02:30;;;;;;;20.75;12.98;;;16.00;99.90;;;;;;5010629;28;20025;-57
2022/07/15 03:04:56;;;;;;;19.15;13.02;;;16.00;99.90;;;;;;5010611;28;20045;-57
2022/07/15 03:07:22;;;;;;;18.40;11.88;;;15.90;99.90;;;;;;5010518;28;20494;-57
2022/07/15 03:09:48;;;;;;;20.05;13.38;;;16.00;99.90;;;;;;4992697;28;20044;-57
2022/07/15 03:12:14;;;;;;;21.88;12.05;;;16.00;99.90;;;;;;5010700;28;20022;-57
2022/07/15 03:14:40;;;;;;;24.60;12.88;;;16.00;99.90;;;;;;5010480;28;20436;-57
2022/07/15 03:17:07;;;;;;;18.70;13.03;;;15.90;99.90;;;;;;5010433;28;20033;-57
2022/07/15 03:19:32;;;;;;;17.77;11.80;;;15.90;99.90;;;;;;5010278;28;20026;-57
2022/07/15 03:21:58;;;;;;;20.88;11.52;;;15.80;99.90;;;;;;4992495;28;20622;-57
2022/07/15 03:24:24;;;;;;;22.50;12.43;;;15.90;99.90;;;;;;5010261;28;20036;-57
2022/07/15 03:26:50;;;;;;;22.30;12.40;;;15.80;99.90;;;;;;5010545;28;20030;-57
2022/07/15 03:29:16;;;;;;;24.63;13.68;;;15.80;99.90;;;;;;5010041;28;20045;-57
2022/07/15 03:31:45;;;;;;;36.45;16.13;;;15.90;99.90;;;;;;5010164;28;20022;-57
2022/07/15 03:34:11;;;;;;;30.55;14.45;;;15.80;99.90;;;;;;5010026;28;20508;-57
2022/07/15 03:36:40;;;;;;;31.90;15.65;;;15.80;99.90;;;;;;4992330;28;20022;-57
2022/07/15 03:39:07;;;;;;;34.67;16.25;;;15.80;99.90;;;;;;4992366;28;20084;-57
2022/07/15 03:41:33;;;;;;;27.83;14.00;;;15.80;99.90;;;;;;5010183;28;20037;-57
2022/07/15 03:44:00;;;;;;;24.57;12.20;;;15.80;99.90;;;;;;5009935;28;20104;-57
2022/07/15 03:46:26;;;;;;;22.03;11.20;;;15.70;99.90;;;;;;4992452;28;20026;-57
2022/07/15 03:48:53;;;;;;;30.27;12.90;;;15.60;99.90;;;;;;5009924;28;20867;-57
2022/07/15 03:51:18;;;;;;;26.30;11.18;;;15.70;99.90;;;;;;4992340;28;20121;-57
2022/07/15 03:53:44;;;;;;;19.98;10.70;;;15.70;99.90;;;;;;5010035;28;20606;-57
2022/07/15 03:56:10;;;;;;;18.60;9.88;;;15.60;99.90;;;;;;5010158;28;20029;-57
2022/07/15 03:58:36;;;;;;;16.48;8.77;;;15.60;99.90;;;;;;5009842;28;20421;-57
2022/07/15 04:01:01;;;;;;;16.83;8.75;;;15.70;99.90;;;;;;5009800;28;20030;-57
2022/07/15 04:03:27;;;;;;;18.30;8.60;;;15.60;99.90;;;;;;5009675;28;20046;-62
2022/07/15 04:05:53;;;;;;;16.05;8.57;;;15.60;99.90;;;;;;5009774;28;20052;-57
2022/07/15 04:08:19;;;;;;;14.43;7.35;;;15.60;99.90;;;;;;5009800;28;20033;-57
2022/07/15 04:10:45;;;;;;;12.48;6.90;;;15.60;99.90;;;;;;5009615;28;20490;-57
2022/07/15 04:13:11;;;;;;;15.25;6.43;;;15.60;99.90;;;;;;5009999;28;20046;-57
2022/07/15 04:15:37;;;;;;;13.80;6.88;;;15.60;99.90;;;;;;4992022;28;20060;-57
2022/07/15 04:18:02;;;;;;;11.95;6.78;;;15.70;99.90;;;;;;5009846;28;20025;-57
2022/07/15 04:20:28;;;;;;;10.38;6.72;;;15.70;99.90;;;;;;5008794;28;20905;-57
2022/07/15 04:22:54;;;;;;;12.15;7.30;;;15.70;99.90;;;;;;5009948;28;20037;-57
2022/07/15 04:25:21;;;;;;;11.07;6.30;;;15.70;99.90;;;;;;5009770;28;20030;-57
2022/07/15 04:27:48;;;;;;;13.70;6.25;;;15.60;99.90;;;;;;5009578;28;20034;-57
2022/07/15 04:30:14;;;;;;;19.75;6.57;;;15.70;99.90;;;;;;5009728;28;20022;-57
2022/07/15 04:32:41;;;;;;;12.65;6.70;;;15.80;99.90;;;;;;5009298;28;20109;-58
2022/07/15 04:35:08;;;;;;;9.63;6.47;;;15.90;99.90;;;;;;5009537;28;20038;-58
2022/07/15 04:37:33;;;;;;;9.80;5.70;;;15.90;99.90;;;;;;5009705;28;20026;-57
2022/07/15 04:40:00;;;;;;;9.45;5.40;;;15.90;99.90;;;;;;5009438;28;20037;-57
2022/07/15 04:42:26;;;;;;;12.50;5.53;;;15.80;99.90;;;;;;5009498;28;20066;-57
2022/07/15 04:44:52;;;;;;;16.63;6.45;;;15.80;99.90;;;;;;5009400;28;20018;-57
2022/07/15 04:47:19;;;;;;;16.48;6.57;;;15.80;99.90;;;;;;5009710;28;20026;-57
2022/07/15 04:52:30;;;;;;;11.57;5.00;;;15.80;99.90;;;;;;5013201;28;20567;-56
2022/07/15 04:54:56;;;;;;;13.07;5.40;;;15.80;99.90;;;;;;5013253;28;20029;-56
2022/07/15 04:57:22;;;;;;;13.07;5.95;;;15.80;99.90;;;;;;5012937;28;20041;-57
2022/07/15 04:59:48;;;;;;;8.32;4.70;;;15.80;99.90;;;;;;5012852;28;20021;-57
2022/07/15 05:02:14;;;;;;;12.48;5.40;;;15.70;99.90;;;;;;5012690;28;20030;-56
2022/07/15 05:04:40;;;;;;;17.08;5.47;;;15.70;99.90;;;;;;5009235;28;20054;-56
2022/07/15 05:07:06;;;;;;;12.25;4.75;;;15.60;99.90;;;;;;5012737;28;20080;-56
2022/07/15 05:09:33;;;;;;;13.55;4.68;;;15.60;99.90;;;;;;5012720;28;20105;-57
2022/07/15 05:11:59;;;;;;;13.13;4.70;;;15.60;99.90;;;;;;5012693;28;20313;-56
2022/07/15 05:14:25;;;;;;;13.30;5.30;;;15.60;99.90;;;;;;5012530;28;20068;-57
2022/07/15 05:16:51;;;;;;;12.10;4.40;;;15.60;99.90;;;;;;5012458;28;20041;-57
2022/07/15 05:19:17;;;;;;;12.10;5.13;;;15.60;99.90;;;;;;5012711;28;20025;-57
2022/07/15 05:21:42;;;;;;;11.75;5.50;;;15.70;99.90;;;;;;5012246;28;20029;-56
2022/07/15 05:24:08;;;;;;;14.30;5.75;;;15.70;99.90;;;;;;5012462;28;20034;-56
2022/07/15 05:26:34;;;;;;;14.63;4.60;;;15.70;99.90;;;;;;5012399;28;20030;-56
2022/07/15 05:29:00;;;;;;;9.27;4.78;;;15.80;99.90;;;;;;5012265;28;20026;-57
2022/07/15 05:31:27;;;;;;;15.50;4.20;;;15.80;99.90;;;;;;5012229;28;20065;-56
2022/07/15 05:33:53;;;;;;;13.75;3.65;;;15.80;99.90;;;;;;5012183;28;20647;-57
2022/07/15 05:36:18;;;;;;;13.90;4.78;;;15.80;99.90;;;;;;5012379;28;20068;-57
2022/07/15 05:38:45;;;;;;;12.60;4.25;;;15.90;99.90;;;;;;5012194;28;20036;-56
2022/07/15 05:41:11;;;;;;;16.02;4.70;;;15.80;99.90;;;;;;5012408;28;20208;-56
2022/07/15 05:43:37;;;;;;;8.65;3.92;;;15.90;99.90;;;;;;5012107;28;20026;-56
2022/07/15 05:46:03;;;;;;;9.35;4.45;;;15.90;99.90;;;;;;5010589;28;20062;-57
2022/07/15 05:48:30;;;;;;;10.63;4.43;;;15.90;99.90;;;;;;5011991;28;20049;-56
2022/07/15 05:50:56;;;;;;;12.25;4.07;;;15.90;99.90;;;;;;5012024;28;20065;-56
2022/07/15 05:53:22;;;;;;;11.48;4.20;;;16.00;99.90;;;;;;5011840;28;20045;-56
2022/07/15 05:55:48;;;;;;;12.77;5.28;;;15.90;99.90;;;;;;5011745;28;20030;-57
2022/07/15 05:58:13;;;;;;;17.17;5.70;;;15.80;99.90;;;;;;5011708;28;20030;-56
2022/07/15 06:00:39;;;;;;;15.48;6.18;;;15.90;99.90;;;;;;5011591;28;20101;-56
2022/07/15 06:03:06;;;;;;;12.80;5.22;;;15.90;99.90;;;;;;5010406;28;20556;-57
2022/07/15 06:05:32;;;;;;;15.60;5.57;;;15.80;99.90;;;;;;5011947;28;20033;-57
2022/07/15 06:07:58;;;;;;;20.80;6.30;;;15.80;99.90;;;;;;5011438;28;20508;-57
2022/07/15 06:10:24;;;;;;;18.00;6.63;;;15.80;99.90;;;;;;5011864;28;20026;-57
2022/07/15 06:12:50;;;;;;;12.65;4.55;;;15.80;99.90;;;;;;5011341;28;20041;-57
2022/07/15 06:15:15;;;;;;;16.77;4.95;;;15.90;99.90;;;;;;5011697;28;20083;-57
2022/07/15 06:17:41;;;;;;;14.38;5.53;;;15.90;99.90;;;;;;5011293;28;20760;-57
2022/07/15 06:20:08;;;;;;;19.33;6.93;;;15.90;99.90;;;;;;5011506;28;20371;-57
2022/07/15 06:22:34;;;;;;;16.27;5.30;;;15.90;99.90;;;;;;5011558;28;20109;-57
2022/07/15 06:24:59;;;;;;;19.42;5.95;;;16.00;99.90;;;;;;5011293;28;20488;-57
2022/07/15 06:27:25;;;;;;;16.77;4.93;;;15.90;99.90;;;;;;5013914;28;20466;-57
2022/07/15 06:29:51;;;;;;;13.35;5.15;;;16.10;99.90;;;;;;5023766;28;20032;-57
2022/07/15 06:32:18;;;;;;;19.58;4.75;;;16.10;99.90;;;;;;5019635;28;20068;-56
2022/07/15 06:34:44;;;;;;;12.17;3.13;;;16.20;99.90;;;;;;5019507;28;20441;-57
2022/07/15 06:37:10;;;;;;;10.05;4.10;;;16.10;99.90;;;;;;5019325;28;20522;-56
2022/07/15 06:39:36;;;;;;;11.60;2.97;;;16.20;99.90;;;;;;5020468;28;20511;-56
2022/07/15 06:42:03;;;;;;;14.27;2.78;;;16.10;99.90;;;;;;5020369;28;20077;-57
2022/07/15 06:44:28;;;;;;;8.32;3.47;;;16.10;99.90;;;;;;5019434;28;20033;-56
2022/07/15 06:46:55;;;;;;;14.00;2.65;;;16.10;99.90;;;;;;5018567;28;20021;-57
2022/07/15 06:49:21;;;;;;;6.40;2.80;;;16.20;99.90;;;;;;5020338;28;20112;-56
2022/07/15 06:51:47;;;;;;;6.03;1.98;;;16.20;99.90;;;;;;5026074;28;20544;-56
2022/07/15 06:54:12;;;;;;;5.00;2.17;;;16.20;99.90;;;;;;5030430;28;20037;-56
2022/07/15 06:56:39;;;;;;;5.20;2.05;;;16.20;99.90;;;;;;5030273;28;20037;-56
2022/07/15 06:59:05;;;;;;;5.70;1.80;;;16.20;99.90;;;;;;5030682;28;20037;-57
2022/07/15 07:01:32;;;;;;;7.43;2.08;;;16.30;99.90;;;;;;5030343;28;20092;-56
2022/07/15 07:03:58;;;;;;;6.40;2.10;;;16.50;99.90;;;;;;5030167;28;20046;-56
2022/07/15 07:06:25;;;;;;;8.10;2.00;;;16.60;99.90;;;;;;5030267;28;20021;-56
2022/07/15 07:08:52;;;;;;;4.47;1.75;;;16.60;99.90;;;;;;5030300;28;20083;-57
2022/07/15 07:11:19;;;;;;;13.60;2.40;;;16.60;99.90;;;;;;5030179;28;20021;-56
2022/07/15 07:13:45;;;;;;;4.50;1.52;;;16.70;99.90;;;;;;5029963;28;20060;-56
2022/07/15 07:16:11;;;;;;;7.33;1.57;;;16.70;99.90;;;;;;5012677;28;20099;-58
2022/07/15 07:18:38;;;;;;;11.85;2.17;;;16.80;99.90;;;;;;5029942;28;20496;-56
2022/07/15 07:21:04;;;;;;;6.53;1.38;;;17.00;99.90;;;;;;5012146;28;20489;-56
2022/07/15 07:23:30;;;;;;;3.53;1.50;;;16.90;99.90;;;;;;5030351;28;20083;-57
2022/07/15 07:25:57;;;;;;;2.47;1.02;;;17.00;99.90;;;;;;5030200;28;20061;-57
2022/07/15 07:28:23;;;;;;;3.42;1.02;;;17.00;99.90;;;;;;5029833;28;20529;-57
2022/07/15 07:30:54;;;;;;;5.28;1.40;;;17.00;99.90;;;;;;5029852;28;20112;-57
2022/07/15 07:33:20;;;;;;;6.40;1.50;;;17.00;99.90;;;;;;5029733;28;20040;-57
2022/07/15 07:35:46;;;;;;;4.45;1.52;;;17.00;99.90;;;;;;4995636;28;20029;-57
2022/07/15 07:38:12;;;;;;;6.78;1.60;;;17.00;99.90;;;;;;5029716;28;20025;-57
2022/07/15 07:40:38;;;;;;;4.90;1.60;;;17.20;99.90;;;;;;5030300;28;20025;-57
2022/07/15 07:43:03;;;;;;;6.50;1.23;;;17.20;99.90;;;;;;5029897;28;20029;-57
2022/07/15 07:45:29;;;;;;;4.88;1.10;;;17.20;99.90;;;;;;5029767;28;20080;-57
2022/07/15 07:47:58;;;;;;;2.85;1.15;;;17.20;99.90;;;;;;5029519;28;20470;-56
2022/07/15 07:50:24;;;;;;;5.68;1.73;;;17.20;99.90;;;;;;5029669;28;20030;-56
2022/07/15 07:52:50;;;;;;;8.20;1.52;;;17.30;99.90;;;;;;5029431;28;20029;-57
2022/07/15 07:55:16;;;;;;;5.95;1.25;;;17.40;99.90;;;;;;5029775;28;20034;-57
2022/07/15 07:57:49;;;;;;;8.35;1.35;;;17.50;99.90;;;;;;5029564;28;20045;-56
2022/07/15 08:00:16;;;;;;;5.55;1.52;;;17.40;99.90;;;;;;5029481;28;20029;-57
2022/07/15 08:02:42;;;;;;;7.15;2.08;;;17.40;99.90;;;;;;5029338;28;20021;-56
2022/07/15 08:05:08;;;;;;;2.67;1.40;;;17.60;99.90;;;;;;5012038;28;20645;-55
2022/07/15 08:07:35;;;;;;;2.47;1.05;;;17.60;99.90;;;;;;5029500;28;20030;-57
2022/07/15 08:10:02;;;;;;;5.97;1.42;;;17.70;99.90;;;;;;5029430;28;20029;-57
2022/07/15 08:12:28;;;;;;;5.07;1.38;;;17.70;99.90;;;;;;5012150;28;20096;-57
2022/07/15 08:14:54;;;;;;;5.53;1.15;;;17.70;99.90;;;;;;5017557;28;20037;-56
2022/07/15 08:17:21;;;;;;;8.20;2.22;;;17.70;99.90;;;;;;5020823;28;20034;-56
2022/07/15 08:19:47;;;;;;;2.20;1.15;;;17.70;99.90;;;;;;5022856;28;20040;-55
2022/07/15 08:22:14;;;;;;;6.90;1.50;;;17.60;99.90;;;;;;4998958;28;20029;-55
2022/07/15 08:24:39;;;;;;;4.38;1.48;;;17.60;99.90;;;;;;5018897;28;20041;-55
2022/07/15 08:27:05;;;;;;;4.47;0.93;;;17.90;99.90;;;;;;5004611;28;20038;-55
2022/07/15 08:29:31;;;;;;;2.60;0.93;;;17.80;99.90;;;;;;5020835;28;20761;-55
2022/07/15 08:31:56;;;;;;;8.23;1.65;;;17.90;99.90;;;;;;5020981;28;20034;-55
2022/07/15 08:34:22;;;;;;;5.15;1.38;;;18.10;99.90;;;;;;5019767;28;20037;-54
2022/07/15 08:36:48;;;;;;;4.93;0.95;;;18.00;99.90;;;;;;5013175;28;20099;-55
2022/07/15 08:39:15;;;;;;;4.28;1.00;;;18.00;99.90;;;;;;5021216;28;20397;-57
2022/07/15 08:41:41;;;;;;;3.38;1.00;;;17.90;99.90;;;;;;5023341;28;20030;-55
2022/07/15 08:44:08;;;;;;;2.85;0.98;;;18.20;99.90;;;;;;5021599;28;20068;-55
2022/07/15 08:46:35;;;;;;;3.93;1.17;;;18.30;99.90;;;;;;5022535;28;20473;-55
2022/07/15 08:49:13;;;;;;;9.50;1.13;;;18.50;99.90;;;;;;5022766;28;20281;-55
2022/07/15 08:51:43;;;;;;;5.72;1.02;;;18.50;99.90;;;;;;5012295;28;20030;-56
2022/07/15 08:54:09;;;;;;;6.75;1.00;;;18.60;99.90;;;;;;5018524;28;20375;-55
2022/07/15 08:56:36;;;;;;;2.85;0.73;;;18.70;99.90;;;;;;5021668;28;20022;-55
2022/07/15 08:59:03;;;;;;;;;;;18.70;99.90;;;;;;5022665;28;20572;-56
2022/07/15 09:01:30;;;;;;;3.83;0.77;;;18.90;99.90;;;;;;5004804;28;19912;-56
2022/07/15 09:03:57;;;;;;;6.03;1.27;;;19.00;99.90;;;;;;5021826;28;20054;-56
2022/07/15 09:06:33;;;;;;;3.57;0.87;;;19.10;99.90;;;;;;5022453;28;20083;-56
2022/07/15 09:09:19;;;;;;;4.43;1.00;;;19.10;99.90;;;;;;5021685;28;20269;-56
2022/07/15 09:11:57;;;;;;;5.55;0.70;;;19.00;98.00;;;;;;5022148;28;20034;-56
2022/07/15 09:14:26;;;;;;;124.20;94.57;;;19.10;99.90;;;;;;4994897;28;20038;-55
2022/07/15 09:17:06;;;;;;;10.68;5.88;;;19.20;99.90;;;;;;4994996;28;20596;-57
2022/07/15 09:20:01;;;;;;;2.53;0.70;;;19.20;95.40;;;;;;5014992;28;20124;-58
2022/07/15 09:22:30;;;;;;;3.85;0.93;;;19.30;98.50;;;;;;5022621;28;20564;-57
2022/07/15 09:25:06;;;;;;;2.75;0.57;;;19.50;96.50;;;;;;5021349;28;20030;-57
2022/07/15 09:27:36;;;;;;;2.10;0.80;;;19.40;95.30;;;;;;5026633;28;20025;-58
2022/07/15 09:33:40;;;;;;;3.10;0.85;;;19.50;96.20;;;;;;5032105;28;20579;-56
2022/07/15 09:36:06;;;;;;;5.13;0.80;;;19.60;98.50;;;;;;5015458;28;20038;-58
2022/07/15 09:39:00;;;;;;;4.28;0.70;;;19.80;96.00;;;;;;5022595;28;20021;-56
2022/07/15 09:41:37;;;;;;;2.22;0.55;;;20.00;94.40;;;;;;5009199;28;20041;-56
2022/07/15 09:44:07;;;;;;;5.57;0.80;;;20.00;94.30;;;;;;5012053;28;20108;-56
2022/07/15 09:46:59;;;;;;;2.92;0.80;;;19.90;94.00;;;;;;5028239;28;20025;-55
2022/07/15 09:49:24;;;;;;;1.60;0.80;;;20.10;94.20;;;;;;5031682;28;20045;-56
2022/07/15 09:51:59;;;;;;;7.25;1.00;;;20.40;94.00;;;;;;5002363;28;20594;-56
2022/07/15 09:54:30;;;;;;;10.13;1.58;;;20.50;91.70;;;;;;5025954;28;20129;-57
2022/07/15 09:56:59;;;;;;;4.28;1.38;;;20.30;90.40;;;;;;5010788;28;20033;-56
2022/07/15 09:59:25;;;;;;;2.58;1.02;;;20.50;91.20;;;;;;5030413;28;20029;-57
2022/07/15 10:01:51;;;;;;;3.90;0.70;;;20.10;90.70;;;;;;5031250;28;20025;-57
2022/07/15 10:04:20;;;;;;;2.67;0.60;;;20.30;94.00;;;;;;5031175;28;20056;-57
2022/07/15 10:06:48;;;;;;;6.30;0.80;;;20.60;93.20;;;;;;5031374;28;20034;-57
2022/07/15 10:09:14;;;;;;;5.32;0.90;;;20.80;91.70;;;;;;5031166;28;20033;-56
2022/07/15 10:11:48;;;;;;;4.22;0.75;;;20.90;91.30;;;;;;5029604;28;20026;-56
2022/07/15 10:14:35;;;;;;;5.60;1.35;;;20.90;88.20;;;;;;5029351;28;20121;-57
2022/07/15 10:17:16;;;;;;;7.70;1.58;;;21.00;90.50;;;;;;5028874;28;20034;-57
2022/07/15 10:19:53;;;;;;;2.97;0.70;;;21.30;90.50;;;;;;5028736;28;20036;-57
2022/07/15 10:22:22;;;;;;;2.53;0.73;;;21.10;87.20;;;;;;5029086;28;20029;-57
2022/07/15 10:25:08;;;;;;;3.55;1.00;;;20.80;87.00;;;;;;5029035;28;20071;-56
2022/07/15 10:28:00;;;;;;;5.53;0.77;;;20.80;88.10;;;;;;5029117;28;20071;-56
2022/07/15 10:30:26;;;;;;;3.70;0.90;;;20.70;84.90;;;;;;5012885;28;20518;-56
2022/07/15 10:33:13;;;;;;;5.45;1.00;;;21.00;89.20;;;;;;5030753;28;20037;-57
2022/07/15 10:35:44;;;;;;;4.88;1.17;;;20.90;84.50;;;;;;5030825;28;20570;-57
2022/07/15 10:38:25;;;;;;;9.23;1.65;;;20.80;88.10;;;;;;5030822;28;20025;-57
2022/07/15 10:41:01;;;;;;;5.47;1.08;;;21.10;87.40;;;;;;5030686;28;20108;-57
2022/07/15 10:43:47;;;;;;;3.75;0.95;;;21.10;87.50;;;;;;5030832;28;20021;-57
2022/07/15 10:46:15;;;;;;;4.82;1.20;;;21.00;83.40;;;;;;5030888;28;20426;-57
2022/07/15 10:48:41;;;;;;;5.07;1.40;;;21.00;84.40;;;;;;5029942;28;20071;-57
2022/07/15 10:51:07;;;;;;;5.60;1.27;;;21.20;86.70;;;;;;5030537;28;20755;-57
2022/07/15 10:53:46;;;;;;;5.95;1.52;;;21.70;85.00;;;;;;5030578;28;20112;-56
2022/07/15 10:56:35;;;;;;;4.55;0.85;;;21.90;80.90;;;;;;5030411;28;20017;-58
2022/07/15 10:59:16;;;;;;;3.92;1.00;;;21.70;83.70;;;;;;5030264;28;20508;-56
2022/07/15 11:01:47;;;;;;;4.85;1.60;;;21.90;81.20;;;;;;5030679;28;20026;-56
2022/07/15 11:04:20;;;;;;;3.08;0.82;;;22.00;75.70;;;;;;5012206;28;20064;-56
2022/07/15 11:07:06;;;;;;;5.53;1.75;;;22.10;75.10;;;;;;5030268;28;20051;-56
2022/07/15 11:09:51;;;;;;;2.78;0.70;;;22.20;78.40;;;;;;5030106;28;20029;-56
2022/07/15 11:12:28;;;;;;;7.25;0.70;;;22.60;77.40;;;;;;5030147;28;20040;-56
2022/07/15 11:15:02;;;;;;;2.30;0.88;;;22.50;76.80;;;;;;5030094;28;20036;-56
2022/07/15 11:17:33;;;;;;;3.50;0.90;;;22.40;77.50;;;;;;5030035;28;20485;-57
2022/07/15 11:20:00;;;;;;;1.25;0.70;;;22.30;74.50;;;;;;5029919;28;20029;-56
2022/07/15 11:22:28;;;;;;;6.50;1.58;;;21.80;69.70;;;;;;5030185;28;20029;-57
2022/07/15 11:24:54;;;;;;;5.60;1.63;;;21.70;71.20;;;;;;5030010;28;20060;-57
2022/07/15 11:27:22;;;;;;;5.00;1.10;;;21.70;72.00;;;;;;5029921;28;20087;-57
2022/07/15 11:29:50;;;;;;;2.53;1.05;;;21.60;80.70;;;;;;5029925;28;20038;-56
2022/07/15 11:32:20;;;;;;;2.40;1.30;;;21.50;75.10;;;;;;5029790;28;20040;-56
2022/07/15 11:34:52;;;;;;;3.63;1.20;;;21.40;76.20;;;;;;5029741;28;20132;-56
2022/07/15 11:37:22;;;;;;;4.68;1.15;;;21.40;78.20;;;;;;5029963;28;20436;-58
2022/07/15 11:40:03;;;;;;;5.00;1.15;;;21.70;75.20;;;;;;5029748;28;20125;-56
2022/07/15 11:45:35;;;;;;;5.07;1.48;;;22.20;75.10;;;;;;5030225;28;20052;-55
2022/07/15 11:48:02;;;;;;;2.05;0.80;;;22.50;74.20;;;;;;5011852;28;20398;-56
2022/07/15 11:50:27;;;;;;;8.02;1.52;;;22.60;72.20;;;;;;5029525;28;20037;-56
2022/07/15 11:52:59;;;;;;;2.38;0.73;;;22.80;73.70;;;;;;5029767;28;20025;-56
2022/07/15 11:55:25;;;;;;;4.18;0.95;;;22.70;68.40;;;;;;5029707;28;20440;-56
2022/07/15 11:57:54;;;;;;;4.95;1.17;;;23.20;75.50;;;;;;5029737;28;20104;-56
2022/07/15 12:00:29;;;;;;;4.47;1.10;;;23.40;70.40;;;;;;5030715;28;20039;-55
2022/07/15 12:03:07;;;;;;;3.55;1.05;;;23.40;67.60;;;;;;5033656;28;20041;-56
2022/07/15 12:05:32;;;;;;;7.03;1.55;;;23.30;68.70;;;;;;5034073;28;20041;-56
2022/07/15 12:07:58;;;;;;;4.70;1.00;;;23.50;72.40;;;;;;5033490;28;20429;-56
2022/07/15 12:10:38;;;;;;;4.30;1.15;;;23.60;68.00;;;;;;5033585;28;20021;-57
2022/07/15 12:13:05;;;;;;;7.47;1.83;;;23.60;69.40;;;;;;5033638;28;20076;-56
2022/07/15 12:15:35;;;;;;;5.18;1.10;;;23.70;71.50;;;;;;5033550;28;20076;-56
2022/07/15 12:18:01;;;;;;;2.10;1.10;;;23.90;72.50;;;;;;5015866;28;20665;-57
2022/07/15 12:20:27;;;;;;;3.15;0.93;;;24.30;71.40;;;;;;5033443;28;20036;-56
2022/07/15 12:23:12;;;;;;;3.67;0.70;;;24.20;70.70;;;;;;5033411;28;20508;-56
2022/07/15 12:25:38;;;;;;;13.43;1.40;;;24.20;70.40;;;;;;5033302;28;20031;-57
2022/07/15 12:28:04;;;;;;;1.33;0.70;;;24.20;64.00;;;;;;5033212;28;20029;-57
2022/07/15 12:30:35;;;;;;;2.95;1.23;;;24.10;61.90;;;;;;5033246;28;20032;-57
2022/07/15 12:33:19;;;;;;;7.78;1.10;;;24.30;60.60;;;;;;5033043;28;20033;-57
2022/07/15 12:35:45;;;;;;;1.67;0.70;;;24.20;60.90;;;;;;5015069;28;20053;-56
2022/07/15 12:38:37;;;;;;;4.53;0.70;;;23.90;64.90;;;;;;5032769;28;20036;-57
2022/07/15 12:41:07;;;;;;;2.25;0.80;;;24.30;68.10;;;;;;5032497;28;20037;-56
2022/07/15 12:43:53;;;;;;;5.03;1.08;;;24.60;63.90;;;;;;5032907;28;20029;-57
2022/07/15 12:46:20;;;;;;;4.57;1.30;;;25.00;64.10;;;;;;5032930;28;20021;-56
2022/07/15 12:48:48;;;;;;;3.00;0.82;;;24.80;63.00;;;;;;5032821;28;20614;-57
2022/07/15 12:51:16;;;;;;;2.03;0.90;;;24.60;63.80;;;;;;5032706;28;20549;-58
2022/07/15 12:53:41;;;;;;;3.63;1.02;;;24.30;59.90;;;;;;5032829;28;20055;-57
2022/07/15 12:56:07;;;;;;;4.40;0.95;;;24.10;61.90;;;;;;5032843;28;20736;-57